createdAt,value
2019-03-28T00:01:50.953Z,92.56
2019-03-28T00:04:20.293Z,92.94
2019-03-28T00:06:49.626Z,91.89
2019-03-28T00:09:19.514Z,90.88
2019-03-28T00:12:09.440Z,92.62
2019-03-28T00:14:38.785Z,95.01
2019-03-28T00:17:08.118Z,96.16
2019-03-28T00:19:37.454Z,98.08
2019-03-28T00:22:06.803Z,100.00
2019-03-28T00:27:31.599Z,100.00
2019-03-28T00:30:00.934Z,100.00
2019-03-28T00:32:30.285Z,100.00
2019-03-28T00:35:00.229Z,100.00
2019-03-28T00:37:50.262Z,100.00
2019-03-28T00:40:19.607Z,100.00
2019-03-28T00:42:48.924Z,100.00
2019-03-28T00:45:24.191Z,100.00
2019-03-28T00:47:53.532Z,100.00
2019-03-28T00:50:41.982Z,100.00
2019-03-28T00:53:12.948Z,100.00
2019-03-28T00:55:42.297Z,100.00
2019-03-28T00:58:11.635Z,100.00
2019-03-28T01:00:40.976Z,100.00
2019-03-28T01:03:11.173Z,100.00
2019-03-28T01:06:00.512Z,100.00
2019-03-28T01:08:29.855Z,100.00
2019-03-28T01:10:59.193Z,100.00
2019-03-28T01:13:28.543Z,100.00
2019-03-28T01:15:57.882Z,100.00
2019-03-28T01:18:27.222Z,100.00
2019-03-28T01:20:56.567Z,100.00
2019-03-28T01:23:25.908Z,100.00
2019-03-28T01:26:07.953Z,100.00
2019-03-28T01:28:37.284Z,100.00
2019-03-28T01:31:06.620Z,100.00
2019-03-28T01:33:35.964Z,100.00
2019-03-28T01:36:05.299Z,100.00
2019-03-28T01:38:46.479Z,100.00
2019-03-28T01:41:16.248Z,100.00
2019-03-28T01:43:56.342Z,100.00
2019-03-28T01:46:31.395Z,100.00
2019-03-28T01:49:03.593Z,100.00
2019-03-28T01:51:50.877Z,100.00
2019-03-28T01:54:20.225Z,100.00
2019-03-28T01:56:49.563Z,100.00
2019-03-28T01:59:18.903Z,100.00
2019-03-28T02:01:48.247Z,100.00
2019-03-28T02:04:17.581Z,100.00
2019-03-28T02:07:06.018Z,100.00
2019-03-28T02:09:35.353Z,100.00
2019-03-28T02:12:05.289Z,100.00
2019-03-28T02:14:40.855Z,100.00
2019-03-28T02:17:10.190Z,100.00
2019-03-28T02:19:39.546Z,100.00
2019-03-28T02:22:08.878Z,100.00
2019-03-28T02:24:38.214Z,100.00
2019-03-28T02:27:07.558Z,100.00
2019-03-28T02:29:36.886Z,100.00
2019-03-28T02:32:06.238Z,100.00
2019-03-28T02:34:35.572Z,100.00
2019-03-28T02:37:05.192Z,100.00
2019-03-28T02:39:34.515Z,100.00
2019-03-28T02:42:03.843Z,100.00
2019-03-28T02:44:33.194Z,100.00
2019-03-28T02:47:02.539Z,100.00
2019-03-28T02:49:31.875Z,100.00
2019-03-28T02:52:01.488Z,100.00
2019-03-28T02:54:32.459Z,100.00
2019-03-28T02:57:01.807Z,100.00
2019-03-28T02:59:31.142Z,100.00
2019-03-28T03:02:00.602Z,100.00
2019-03-28T03:04:29.946Z,100.00
2019-03-28T03:06:59.367Z,100.00
2019-03-28T03:09:40.972Z,100.00
2019-03-28T03:12:10.303Z,100.00
2019-03-28T03:14:39.642Z,100.00
2019-03-28T03:17:08.996Z,100.00
2019-03-28T03:19:38.335Z,100.00
2019-03-28T03:22:07.694Z,100.00
2019-03-28T03:24:37.040Z,100.00
2019-03-28T03:27:06.347Z,100.00
2019-03-28T03:29:35.768Z,100.00
2019-03-28T03:32:05.106Z,100.00
2019-03-28T03:34:34.455Z,100.00
2019-03-28T03:37:04.195Z,100.00
2019-03-28T03:39:40.409Z,100.00
2019-03-28T03:42:09.884Z,100.00
2019-03-28T03:44:58.317Z,100.00
2019-03-28T03:47:32.878Z,100.00
2019-03-28T03:50:02.229Z,100.00
2019-03-28T03:52:31.559Z,100.00
2019-03-28T03:55:00.897Z,100.00
2019-03-28T03:57:30.244Z,100.00
2019-03-28T03:59:59.582Z,100.00
2019-03-28T04:02:28.907Z,100.00
2019-03-28T04:04:58.242Z,100.00
2019-03-28T04:07:27.594Z,100.00
2019-03-28T04:09:56.932Z,100.00
2019-03-28T04:12:26.288Z,100.00
2019-03-28T04:14:55.608Z,100.00
2019-03-28T04:17:25.205Z,100.00
2019-03-28T04:19:54.573Z,100.00
2019-03-28T04:22:24.217Z,100.00
2019-03-28T04:24:53.561Z,100.00
2019-03-28T04:27:22.892Z,100.00
2019-03-28T04:29:52.230Z,100.00
2019-03-28T04:32:21.574Z,100.00
2019-03-28T04:34:50.904Z,100.00
2019-03-28T04:37:20.247Z,100.00
2019-03-28T04:39:49.595Z,100.00
2019-03-28T04:42:18.934Z,100.00
2019-03-28T04:44:48.268Z,100.00
2019-03-28T04:47:17.598Z,100.00
2019-03-28T04:49:52.479Z,100.00
2019-03-28T04:52:21.812Z,100.00
2019-03-28T04:54:51.146Z,100.00
2019-03-28T04:57:20.492Z,100.00
2019-03-28T04:59:49.829Z,100.00
2019-03-28T05:02:19.184Z,100.00
2019-03-28T05:04:48.509Z,100.00
2019-03-28T05:07:17.839Z,100.00
2019-03-28T05:09:47.178Z,100.00
2019-03-28T05:12:16.511Z,100.00
2019-03-28T05:14:45.858Z,100.00
2019-03-28T05:17:15.192Z,100.00
2019-03-28T05:19:44.534Z,100.00
2019-03-28T05:22:13.869Z,100.00
2019-03-28T05:24:43.227Z,100.00
2019-03-28T05:27:18.188Z,100.00
2019-03-28T05:29:47.531Z,100.00
2019-03-28T05:32:16.863Z,100.00
2019-03-28T05:34:46.203Z,100.00
2019-03-28T05:37:15.547Z,100.00
2019-03-28T05:39:45.336Z,100.00
2019-03-28T05:42:21.395Z,100.00
2019-03-28T05:44:50.729Z,100.00
2019-03-28T05:47:22.102Z,100.00
2019-03-28T05:49:56.514Z,100.00
2019-03-28T05:52:31.623Z,100.00
2019-03-28T05:55:01.037Z,100.00
2019-03-28T05:57:30.707Z,100.00
2019-03-28T06:00:00.434Z,100.00
2019-03-28T06:02:30.023Z,100.00
2019-03-28T06:04:59.371Z,100.00
2019-03-28T06:07:28.715Z,100.00
2019-03-28T06:09:58.058Z,100.00
2019-03-28T06:12:27.401Z,100.00
2019-03-28T06:14:56.735Z,100.00
2019-03-28T06:17:26.080Z,100.00
2019-03-28T06:19:55.416Z,100.00
2019-03-28T06:22:30.657Z,100.00
2019-03-28T06:24:59.989Z,98.66
2019-03-28T06:27:29.319Z,97.27
2019-03-28T06:30:01.804Z,96.75
2019-03-28T06:32:48.781Z,95.52
2019-03-28T06:35:18.403Z,96.42
2019-03-28T06:38:08.242Z,95.45
2019-03-28T06:40:37.602Z,94.72
2019-03-28T06:43:06.930Z,94.74
2019-03-28T06:45:36.262Z,94.89
2019-03-28T06:48:05.603Z,94.04
2019-03-28T06:50:34.936Z,93.77
2019-03-28T06:53:04.344Z,93.78
2019-03-28T06:55:36.767Z,93.33
2019-03-28T06:58:14.423Z,93.42
2019-03-28T07:00:43.760Z,93.74
2019-03-28T07:03:13.452Z,92.87
2019-03-28T07:05:42.790Z,92.49
2019-03-28T07:08:12.123Z,92.14
2019-03-28T07:10:41.753Z,91.48
2019-03-28T07:13:11.087Z,90.19
2019-03-28T07:15:40.430Z,89.14
2019-03-28T07:18:09.764Z,88.20
2019-03-28T07:20:39.094Z,88.57
2019-03-28T07:23:08.439Z,88.20
2019-03-28T07:25:37.773Z,88.83
2019-03-28T07:28:07.107Z,87.33
2019-03-28T07:30:38.107Z,87.24
2019-03-28T07:33:07.443Z,85.46
2019-03-28T07:35:36.802Z,84.78
2019-03-28T07:38:06.110Z,85.11
2019-03-28T07:40:35.670Z,84.65
2019-03-28T07:43:06.720Z,85.08
2019-03-28T07:45:37.682Z,87.03
2019-03-28T07:48:08.658Z,87.84
2019-03-28T07:50:42.416Z,85.36
2019-03-28T07:53:19.567Z,85.44
2019-03-28T07:56:15.908Z,85.47
2019-03-28T07:58:46.903Z,83.85
2019-03-28T08:01:18.308Z,81.56
2019-03-28T08:04:12.298Z,82.01
2019-03-28T08:06:49.671Z,81.74
2019-03-28T08:09:19.956Z,80.36
2019-03-28T08:11:50.915Z,81.63
2019-03-28T08:14:21.891Z,84.11
2019-03-28T08:16:52.851Z,80.36
2019-03-28T08:19:23.830Z,78.78
2019-03-28T08:21:53.157Z,77.82
2019-03-28T08:24:22.488Z,76.91
2019-03-28T08:26:51.820Z,75.45
2019-03-28T08:29:21.143Z,75.03
2019-03-28T08:35:45.359Z,73.47
2019-03-28T08:38:26.035Z,74.05
2019-03-28T08:40:55.683Z,73.96
2019-03-28T08:43:25.009Z,74.50
2019-03-28T08:46:00.530Z,73.33
2019-03-28T08:48:29.860Z,75.85
2019-03-28T08:50:59.223Z,74.35
2019-03-28T08:53:28.547Z,72.56
2019-03-28T08:55:57.875Z,69.64
2019-03-28T08:58:48.185Z,69.76
2019-03-28T09:01:30.640Z,68.38
2019-03-28T09:04:21.006Z,69.02
2019-03-28T09:06:50.291Z,69.70
2019-03-28T09:09:32.974Z,68.86
2019-03-28T09:12:04.294Z,64.76
2019-03-28T09:14:35.270Z,65.10
2019-03-28T09:17:06.237Z,65.24
2019-03-28T09:19:38.933Z,64.00
2019-03-28T09:22:27.362Z,63.46
2019-03-28T09:24:58.339Z,65.28
2019-03-28T09:27:29.303Z,64.32
2019-03-28T09:30:48.844Z,63.59
2019-03-28T09:33:20.612Z,63.47
2019-03-28T09:35:51.780Z,62.36
2019-03-28T09:38:41.786Z,61.36
2019-03-28T09:41:12.907Z,60.30
2019-03-28T09:43:54.670Z,62.88
2019-03-28T09:46:20.043Z,60.49
2019-03-28T09:48:51.012Z,62.99
2019-03-28T09:51:22.170Z,61.97
2019-03-28T09:53:53.132Z,58.69
2019-03-28T09:56:24.119Z,59.17
2019-03-28T09:58:55.085Z,60.07
2019-03-28T10:01:26.187Z,60.43
2019-03-28T10:03:57.158Z,59.15
2019-03-28T10:06:28.418Z,58.43
2019-03-28T10:08:59.513Z,58.17
2019-03-28T10:11:30.503Z,57.87
2019-03-28T10:14:18.925Z,59.87
2019-03-28T10:16:49.899Z,59.85
2019-03-28T10:19:20.864Z,59.94
2019-03-28T10:21:51.846Z,59.25
2019-03-28T10:24:21.176Z,59.43
2019-03-28T10:26:50.565Z,60.01
2019-03-28T10:29:38.997Z,59.42
2019-03-28T10:32:08.327Z,57.78
2019-03-28T10:34:37.672Z,57.70
2019-03-28T10:37:07.002Z,58.30
2019-03-28T10:39:36.334Z,58.60
2019-03-28T10:42:05.753Z,59.01
2019-03-28T10:44:35.467Z,59.19
2019-03-28T10:49:45.692Z,58.10
2019-03-28T10:55:35.722Z,57.34
2019-03-28T10:58:17.598Z,58.36
2019-03-28T11:00:41.753Z,57.92
2019-03-28T11:03:11.097Z,56.52
2019-03-28T11:05:42.080Z,57.76
2019-03-28T11:08:13.062Z,56.41
2019-03-28T11:10:42.410Z,56.72
2019-03-28T11:13:11.746Z,57.71
2019-03-28T11:15:42.719Z,57.57
2019-03-28T11:18:13.802Z,55.90
2019-03-28T11:20:44.840Z,56.58
2019-03-28T11:23:33.516Z,54.94
2019-03-28T11:26:02.853Z,54.94
2019-03-28T11:28:32.214Z,54.06
2019-03-28T11:31:01.529Z,54.32
2019-03-28T11:33:30.867Z,53.87
2019-03-28T11:36:00.209Z,54.50
2019-03-28T11:38:29.544Z,54.62
2019-03-28T11:40:58.866Z,54.11
2019-03-28T11:43:28.263Z,53.24
2019-03-28T11:45:57.597Z,52.95
2019-03-28T11:48:28.581Z,51.86
2019-03-28T11:50:57.914Z,51.18
2019-03-28T11:53:28.879Z,50.37
2019-03-28T11:55:58.216Z,50.43
2019-03-28T11:58:27.543Z,51.90
2019-03-28T12:00:56.875Z,50.63
2019-03-28T12:03:26.223Z,50.62
2019-03-28T12:05:55.791Z,50.08
2019-03-28T12:08:25.141Z,50.08
2019-03-28T12:11:13.862Z,50.46
2019-03-28T12:13:55.012Z,48.34
2019-03-28T12:16:36.791Z,48.66
2019-03-28T12:19:06.130Z,48.66
2019-03-28T12:21:54.800Z,47.74
2019-03-28T12:24:36.780Z,47.45
2019-03-28T12:27:06.110Z,47.45
2019-03-28T12:29:36.023Z,48.47
2019-03-28T12:32:37.443Z,48.21
2019-03-28T12:38:27.245Z,48.61
2019-03-28T12:40:56.618Z,49.62
2019-03-28T12:43:25.956Z,48.13
2019-03-28T12:45:55.291Z,48.24
2019-03-28T12:48:24.621Z,49.13
2019-03-28T12:50:58.973Z,48.69
2019-03-28T12:53:30.812Z,49.52
2019-03-28T12:56:00.143Z,49.36
2019-03-28T12:58:29.479Z,48.96
2019-03-28T13:01:10.430Z,50.68
2019-03-28T13:03:45.784Z,50.68
2019-03-28T13:06:30.323Z,50.10
2019-03-28T13:08:59.651Z,50.72
2019-03-28T13:11:28.980Z,47.79
2019-03-28T13:13:58.311Z,49.04
2019-03-28T13:16:40.302Z,49.37
2019-03-28T13:19:09.881Z,49.30
2019-03-28T13:21:58.626Z,48.64
2019-03-28T13:24:28.140Z,48.18
2019-03-28T13:26:57.462Z,49.99
2019-03-28T13:29:26.790Z,49.70
2019-03-28T13:32:15.466Z,48.81
2019-03-28T13:34:45.110Z,49.61
2019-03-28T13:37:14.452Z,49.88
2019-03-28T13:39:43.773Z,50.38
2019-03-28T13:42:13.115Z,51.04
2019-03-28T13:44:42.443Z,51.34
2019-03-28T13:47:11.779Z,51.41
2019-03-28T13:49:41.119Z,50.43
2019-03-28T13:52:22.209Z,50.49
2019-03-28T13:54:53.037Z,50.49
2019-03-28T13:57:28.267Z,51.52
2019-03-28T13:59:57.607Z,52.28
2019-03-28T14:02:26.939Z,52.72
2019-03-28T14:04:56.281Z,52.96
2019-03-28T14:07:45.027Z,52.67
2019-03-28T14:10:25.595Z,53.26
2019-03-28T14:13:14.275Z,53.74
2019-03-28T14:15:43.622Z,53.74
2019-03-28T14:18:13.255Z,53.16
2019-03-28T14:20:42.587Z,53.71
2019-03-28T14:23:23.678Z,53.78
2019-03-28T14:25:54.030Z,53.78
2019-03-28T14:28:23.363Z,53.46
2019-03-28T14:30:52.708Z,52.05
2019-03-28T14:33:22.039Z,52.05
2019-03-28T14:35:51.372Z,51.00
2019-03-28T14:38:20.973Z,51.90
2019-03-28T14:40:50.308Z,51.30
2019-03-28T14:43:19.629Z,51.23
2019-03-28T14:46:01.437Z,52.08
2019-03-28T14:48:30.799Z,52.83
2019-03-28T14:51:00.119Z,53.69
2019-03-28T14:53:42.035Z,53.64
2019-03-28T15:02:07.830Z,54.92
2019-03-28T15:04:43.491Z,56.23
2019-03-28T15:10:39.395Z,56.74
2019-03-28T15:13:21.268Z,58.54
2019-03-28T15:15:51.023Z,58.54
2019-03-28T15:18:39.699Z,59.21
2019-03-28T15:21:09.051Z,59.21
2019-03-28T15:23:57.720Z,60.42
2019-03-28T15:26:39.621Z,60.52
2019-03-28T15:29:20.962Z,60.52
2019-03-28T15:31:50.306Z,59.25
2019-03-28T15:34:19.637Z,59.15
2019-03-28T15:36:50.615Z,59.15
2019-03-28T15:39:19.949Z,59.26
2019-03-28T15:41:49.279Z,59.00
2019-03-28T15:44:18.619Z,59.55
2019-03-28T15:46:47.953Z,59.55
2019-03-28T15:49:17.290Z,59.13
2019-03-28T15:52:05.954Z,58.94
2019-03-28T15:54:47.828Z,59.53
2019-03-28T15:57:28.896Z,58.61
2019-03-28T15:59:58.238Z,58.61
2019-03-28T16:02:27.568Z,59.24
2019-03-28T16:05:08.678Z,59.18
2019-03-28T16:07:38.271Z,59.18
2019-03-28T16:10:20.229Z,58.29
2019-03-28T16:12:49.550Z,58.29
2019-03-28T16:15:18.879Z,59.01
2019-03-28T16:17:59.950Z,58.88
2019-03-28T16:20:29.284Z,58.88
2019-03-28T16:22:58.623Z,59.81
2019-03-28T16:25:28.366Z,59.94
2019-03-28T16:27:57.695Z,59.99
2019-03-28T16:30:39.470Z,61.19
2019-03-28T16:33:20.602Z,60.49
2019-03-28T16:35:49.925Z,60.49
2019-03-28T16:38:19.649Z,61.44
2019-03-28T16:41:09.630Z,62.25
2019-03-28T16:43:38.965Z,61.99
2019-03-28T16:46:20.059Z,62.85
2019-03-28T16:49:01.214Z,62.87
2019-03-28T16:51:30.533Z,62.87
2019-03-28T16:53:59.852Z,63.58
2019-03-28T16:56:29.255Z,64.99
2019-03-28T16:58:58.590Z,65.26
2019-03-28T17:01:28.196Z,64.76
2019-03-28T17:03:57.514Z,64.50
2019-03-28T17:06:46.016Z,65.66
2019-03-28T17:12:53.149Z,65.93
2019-03-28T17:15:25.736Z,67.11
2019-03-28T17:18:12.984Z,67.54
2019-03-28T17:20:42.464Z,67.57
2019-03-28T17:23:11.858Z,68.42
2019-03-28T17:25:41.193Z,69.26
2019-03-28T17:28:10.524Z,69.86
2019-03-28T17:30:39.864Z,69.93
2019-03-28T17:33:09.193Z,70.46
2019-03-28T17:35:38.537Z,71.34
2019-03-28T17:38:07.867Z,72.37
2019-03-28T17:40:39.020Z,72.14
2019-03-28T17:43:08.420Z,72.45
2019-03-28T17:45:37.747Z,73.17
2019-03-28T17:48:08.723Z,73.21
2019-03-28T17:50:38.051Z,73.71
2019-03-28T17:56:09.534Z,75.53
2019-03-28T17:58:59.843Z,76.39
2019-03-28T18:01:29.215Z,76.74
2019-03-28T18:03:58.624Z,76.33
2019-03-28T18:06:27.958Z,76.76
2019-03-28T18:08:58.925Z,76.47
2019-03-28T18:11:33.889Z,77.19
2019-03-28T18:17:06.692Z,78.51
2019-03-28T18:19:36.026Z,78.50
2019-03-28T18:22:05.368Z,78.20
2019-03-28T18:24:34.815Z,78.27
2019-03-28T18:27:04.159Z,79.77
2019-03-28T18:29:35.957Z,79.09
2019-03-28T18:32:10.113Z,78.72
2019-03-28T18:34:39.487Z,78.10
2019-03-28T18:37:08.866Z,77.88
2019-03-28T18:39:38.286Z,78.04
2019-03-28T18:42:07.661Z,77.62
2019-03-28T18:44:37.046Z,78.17
2019-03-28T18:47:06.748Z,77.74
2019-03-28T18:49:36.149Z,79.17
2019-03-28T18:52:07.403Z,79.00
2019-03-28T18:54:42.013Z,78.62
2019-03-28T18:57:11.462Z,79.32
2019-03-28T18:59:41.159Z,79.79
2019-03-28T19:02:10.577Z,79.20
2019-03-28T19:04:40.019Z,80.37
2019-03-28T19:07:10.020Z,80.26
2019-03-28T19:09:46.236Z,81.65
2019-03-28T19:12:15.798Z,80.03
2019-03-28T19:18:27.446Z,80.27
2019-03-28T19:20:57.057Z,79.82
2019-03-28T19:23:27.056Z,80.72
2019-03-28T19:25:58.209Z,81.87
2019-03-28T19:28:29.480Z,81.66
2019-03-28T19:31:18.921Z,80.97
2019-03-28T19:33:48.818Z,80.45
2019-03-28T19:36:18.450Z,80.82
2019-03-28T19:39:27.910Z,80.92
2019-03-28T19:44:57.978Z,81.69
2019-03-28T19:47:28.690Z,81.33
2019-03-28T19:50:48.126Z,81.55
2019-03-28T19:53:17.947Z,81.57
2019-03-28T19:56:08.051Z,82.49
2019-03-28T19:58:37.603Z,82.04
2019-03-28T20:01:07.247Z,82.94
2019-03-28T20:03:36.821Z,82.37
2019-03-28T20:12:09.830Z,82.01
2019-03-28T20:14:39.417Z,83.48
2019-03-28T20:17:09.047Z,82.38
2019-03-28T20:19:38.625Z,83.13
2019-03-28T20:22:08.180Z,83.34
2019-03-28T20:24:43.563Z,83.44
2019-03-28T20:27:13.477Z,83.07
2019-03-28T20:29:55.387Z,83.84
2019-03-28T20:32:24.953Z,83.31
2019-03-28T20:34:54.556Z,84.76
2019-03-28T20:37:44.845Z,84.19
2019-03-28T20:43:16.632Z,83.79
2019-03-28T20:45:46.172Z,84.29
2019-03-28T20:48:16.943Z,83.69
2019-03-28T20:50:52.014Z,84.41
2019-03-28T20:53:21.515Z,84.71
2019-03-28T20:55:51.774Z,84.50
2019-03-28T20:58:28.727Z,84.44
2019-03-28T21:04:00.307Z,85.38
2019-03-28T21:06:49.395Z,85.33
2019-03-28T21:09:19.171Z,85.23
2019-03-28T21:11:49.092Z,85.02
2019-03-28T21:14:38.950Z,86.19
2019-03-28T21:17:13.775Z,86.29
2019-03-28T21:19:43.299Z,86.71
2019-03-28T21:22:12.774Z,86.12
2019-03-28T21:24:42.225Z,86.77
2019-03-28T21:27:11.959Z,87.54
2019-03-28T21:29:48.695Z,87.14
2019-03-28T21:32:18.885Z,87.39
2019-03-28T21:34:56.428Z,89.07
2019-03-28T21:37:31.005Z,88.77
2019-03-28T21:40:01.315Z,89.19
2019-03-28T21:42:50.467Z,88.84
2019-03-28T21:45:19.867Z,89.59
2019-03-28T21:47:49.201Z,89.82
2019-03-28T21:50:18.539Z,88.74
2019-03-28T21:52:47.867Z,90.17
2019-03-28T21:55:17.277Z,90.95
2019-03-28T21:58:05.708Z,92.19
2019-03-28T22:00:35.064Z,92.05
2019-03-28T22:03:04.401Z,90.15
2019-03-28T22:05:33.732Z,90.13
2019-03-28T22:08:03.070Z,89.40
2019-03-28T22:10:32.674Z,90.12
2019-03-28T22:13:02.013Z,88.96
2019-03-28T22:15:50.435Z,89.69
2019-03-28T22:18:19.782Z,88.94
2019-03-28T22:21:08.447Z,90.05
2019-03-28T22:23:37.784Z,90.41
2019-03-28T22:26:07.110Z,90.21
2019-03-28T22:28:38.111Z,89.87
2019-03-28T22:31:46.138Z,90.79
2019-03-28T22:34:15.856Z,90.36
2019-03-28T22:36:56.444Z,89.93
2019-03-28T22:39:21.355Z,90.06
2019-03-28T22:41:50.682Z,91.21
2019-03-28T22:44:20.018Z,91.22
2019-03-28T22:46:49.350Z,90.77
2019-03-28T22:49:19.015Z,91.18
2019-03-28T22:51:48.351Z,91.42
2019-03-28T22:54:17.680Z,91.71
2019-03-28T22:56:53.287Z,91.53
2019-03-28T22:59:22.620Z,91.05
2019-03-28T23:01:51.955Z,92.18
2019-03-28T23:04:21.298Z,92.06
2019-03-28T23:06:50.623Z,92.68
2019-03-28T23:09:19.965Z,92.45
2019-03-28T23:11:49.291Z,92.66
2019-03-28T23:14:18.943Z,93.18
2019-03-28T23:17:08.746Z,94.69
2019-03-28T23:19:38.088Z,93.15
2019-03-28T23:22:27.027Z,94.59
2019-03-28T23:24:56.632Z,95.52
2019-03-28T23:27:26.878Z,95.50
2019-03-28T23:30:02.843Z,95.81
2019-03-28T23:32:38.919Z,95.83
2019-03-28T23:35:14.813Z,97.02
2019-03-28T23:37:51.295Z,97.96
2019-03-28T23:40:20.904Z,98.59
2019-03-28T23:42:50.235Z,99.51
2019-03-28T23:45:27.233Z,99.37
2019-03-28T23:47:56.563Z,100.00
2019-03-28T23:50:25.901Z,100.00
2019-03-28T23:52:55.240Z,100.00
2019-03-28T23:55:36.955Z,100.00
2019-03-28T23:58:06.317Z,100.00
